Time;durP1;ratioP1;P1;durP2;ratioP2;P2;SDS_P1;SDS_P2;PMS_P1;PMS_P2;Temp;Humidity;BMP_temperature;BMP_pressure;BME280_temperature;BME280_humidity;BME280_pressure;Samples;Min_cycle;Max_cycle;Signal;HPM_P1;HPM_P2
2023/08/16 00:00:21;;;;;;;6.35;2.70;;;14.00;99.90;;;;;;5016251;28;20662;-87
2023/08/16 00:02:48;;;;;;;4.03;2.92;;;13.90;99.90;;;;;;5052461;28;20079;-87
2023/08/16 00:05:14;;;;;;;5.30;2.83;;;13.70;99.90;;;;;;5070489;28;20071;-87
2023/08/16 00:07:40;;;;;;;8.18;2.90;;;13.80;99.90;;;;;;5012065;28;20040;-87
2023/08/16 00:10:10;;;;;;;6.93;3.08;;;13.70;99.90;;;;;;5026183;28;20055;-87
2023/08/16 00:12:36;;;;;;;6.35;3.40;;;13.60;99.90;;;;;;5047490;28;20100;-87
2023/08/16 00:15:02;;;;;;;6.00;3.08;;;13.60;99.90;;;;;;5034046;28;20037;-87
2023/08/16 00:17:28;;;;;;;3.90;2.70;;;13.60;99.90;;;;;;5050695;28;20405;-88
2023/08/16 00:19:53;;;;;;;8.32;3.20;;;13.70;99.90;;;;;;5034593;28;20073;-89
2023/08/16 00:22:19;;;;;;;3.83;2.95;;;13.80;99.90;;;;;;5034001;28;20527;-88
2023/08/16 00:24:45;;;;;;;6.20;3.72;;;13.90;99.90;;;;;;5029649;28;20611;-88
2023/08/16 00:27:11;;;;;;;4.50;3.50;;;13.90;99.90;;;;;;5036274;28;20093;-88
2023/08/16 00:29:37;;;;;;;6.95;3.08;;;14.00;99.90;;;;;;5028619;28;20400;-87
2023/08/16 00:32:07;;;;;;;5.43;4.00;;;14.10;99.90;;;;;;5042241;28;20040;-91
2023/08/16 00:34:33;;;;;;;4.82;3.00;;;14.10;99.90;;;;;;5036741;28;20037;-88
2023/08/16 00:36:59;;;;;;;4.35;2.95;;;14.00;99.90;;;;;;5034410;28;20094;-89
2023/08/16 00:39:25;;;;;;;4.88;3.28;;;14.00;99.90;;;;;;5036527;28;20033;-89
2023/08/16 00:41:50;;;;;;;6.03;3.30;;;13.90;99.90;;;;;;5039136;28;20094;-89
2023/08/16 00:44:16;;;;;;;7.45;2.90;;;13.90;99.90;;;;;;5047510;28;20047;-88
2023/08/16 00:46:42;;;;;;;6.32;2.92;;;13.90;99.90;;;;;;5037621;28;20404;-88
2023/08/16 00:49:08;;;;;;;7.70;3.22;;;13.80;99.90;;;;;;5054922;28;20095;-88
2023/08/16 00:51:34;;;;;;;5.35;3.00;;;13.80;99.90;;;;;;5020190;28;20435;-87
2023/08/16 00:53:59;;;;;;;3.83;3.10;;;13.80;99.90;;;;;;5020164;28;20055;-88
2023/08/16 00:56:26;;;;;;;3.53;2.78;;;13.80;99.90;;;;;;5029500;28;20423;-88
2023/08/16 00:58:51;;;;;;;4.95;3.03;;;13.80;99.90;;;;;;5052609;28;20044;-89
2023/08/16 01:01:17;;;;;;;3.38;3.03;;;13.70;99.90;;;;;;5019328;28;20099;-89
2023/08/16 01:03:44;;;;;;;4.72;2.90;;;13.70;99.90;;;;;;5048406;28;20118;-88
2023/08/16 01:06:10;;;;;;;4.70;3.17;;;13.70;99.90;;;;;;5037113;28;20055;-89
2023/08/16 01:08:37;;;;;;;3.47;3.10;;;13.70;99.90;;;;;;5035810;28;20040;-88
2023/08/16 01:11:11;;;;;;;4.75;3.22;;;13.60;99.90;;;;;;5035078;28;20040;-88
2023/08/16 01:13:51;;;;;;;4.10;3.13;;;13.60;99.90;;;;;;5052515;28;20037;-90
2023/08/16 01:16:19;;;;;;;4.43;3.50;;;13.60;99.90;;;;;;5035605;28;20040;-90
2023/08/16 01:18:45;;;;;;;4.90;3.85;;;13.60;99.90;;;;;;5034898;28;20049;-90
2023/08/16 01:21:15;;;;;;;5.07;3.40;;;13.60;99.90;;;;;;5035263;28;20079;-91
2023/08/16 01:23:53;;;;;;;10.23;3.63;;;13.50;99.90;;;;;;5030901;28;20049;-90
2023/08/16 01:26:36;;;;;;;4.53;4.05;;;13.50;99.90;;;;;;5050862;28;20537;-89
2023/08/16 01:29:04;;;;;;;5.05;3.67;;;13.50;99.90;;;;;;5031460;28;20044;-90
2023/08/16 01:31:31;;;;;;;5.07;2.97;;;13.50;99.90;;;;;;5038875;28;20055;-90
2023/08/16 01:33:59;;;;;;;4.72;3.83;;;13.50;99.90;;;;;;5037466;28;20051;-90
2023/08/16 01:36:25;;;;;;;4.82;3.47;;;13.50;99.90;;;;;;5017245;28;20037;-92
2023/08/16 01:38:52;;;;;;;4.40;3.47;;;13.40;99.90;;;;;;5029179;28;20500;-89
2023/08/16 01:41:26;;;;;;;3.65;3.30;;;13.40;99.90;;;;;;5053355;28;20051;-89
2023/08/16 01:43:54;;;;;;;6.22;3.35;;;13.40;99.90;;;;;;5036977;28;20512;-90
2023/08/16 01:46:21;;;;;;;7.30;3.90;;;13.40;99.90;;;;;;5033734;28;20104;-90
2023/08/16 01:48:48;;;;;;;4.70;3.95;;;13.30;99.90;;;;;;5031097;28;20037;-89
2023/08/16 01:51:14;;;;;;;5.85;3.75;;;13.30;99.90;;;;;;5049593;28;20167;-89
2023/08/16 01:53:40;;;;;;;4.63;3.67;;;13.20;99.90;;;;;;5048341;28;20486;-89
2023/08/16 01:56:05;;;;;;;6.43;3.72;;;13.20;99.90;;;;;;5051167;28;20045;-89
2023/08/16 01:58:31;;;;;;;4.75;3.60;;;13.10;99.90;;;;;;5029838;28;20048;-89
2023/08/16 02:00:57;;;;;;;5.15;3.65;;;13.10;99.90;;;;;;5023522;28;20192;-88
2023/08/16 02:03:23;;;;;;;7.63;3.83;;;13.10;99.90;;;;;;5053748;28;20048;-88
2023/08/16 02:05:49;;;;;;;4.22;3.65;;;13.10;99.90;;;;;;5036124;28;20036;-89
2023/08/16 02:08:14;;;;;;;4.82;3.60;;;13.10;99.90;;;;;;5050706;28;20082;-89
2023/08/16 02:10:40;;;;;;;6.55;3.53;;;13.10;99.90;;;;;;5033723;28;20041;-89
2023/08/16 02:13:06;;;;;;;4.07;3.40;;;13.10;99.90;;;;;;5033669;28;20044;-89
2023/08/16 02:15:32;;;;;;;5.40;3.70;;;13.10;99.90;;;;;;5028348;28;20039;-88
2023/08/16 02:17:58;;;;;;;7.82;3.90;;;13.10;99.90;;;;;;5033114;28;20033;-89
2023/08/16 02:20:23;;;;;;;6.72;3.53;;;13.10;99.90;;;;;;5023987;28;20033;-89
2023/08/16 02:22:49;;;;;;;6.22;3.95;;;13.10;99.90;;;;;;5051378;28;20475;-88
2023/08/16 02:25:15;;;;;;;4.45;3.70;;;13.10;99.90;;;;;;5031305;28;20048;-88
2023/08/16 02:27:41;;;;;;;7.25;3.65;;;13.00;99.90;;;;;;5050613;28;20053;-88
2023/08/16 02:30:07;;;;;;;6.88;3.60;;;13.00;99.90;;;;;;5033487;28;20419;-89
2023/08/16 02:32:33;;;;;;;4.53;4.00;;;13.00;99.90;;;;;;5033675;28;20037;-87
2023/08/16 02:34:59;;;;;;;7.30;4.07;;;13.10;99.90;;;;;;5033861;28;20102;-88
2023/08/16 02:37:26;;;;;;;5.35;4.03;;;13.10;99.90;;;;;;5051054;28;20135;-88
2023/08/16 02:39:52;;;;;;;6.32;3.90;;;13.00;99.90;;;;;;5018435;28;20048;-88
2023/08/16 02:42:17;;;;;;;5.22;4.10;;;13.00;99.90;;;;;;5057052;28;20511;-89
2023/08/16 02:44:43;;;;;;;6.80;4.07;;;13.00;99.90;;;;;;5037208;28;20045;-90
2023/08/16 02:47:09;;;;;;;9.10;4.35;;;12.90;99.90;;;;;;5052977;28;20045;-93
2023/08/16 02:49:35;;;;;;;9.00;4.30;;;12.80;99.90;;;;;;5040638;28;20098;-90
2023/08/16 02:52:01;;;;;;;6.45;4.35;;;12.80;99.90;;;;;;5056281;28;20392;-90
2023/08/16 02:54:26;;;;;;;6.35;5.00;;;12.80;99.90;;;;;;5056153;28;20380;-91
2023/08/16 02:56:52;;;;;;;8.50;5.30;;;12.80;99.90;;;;;;5055682;28;20047;-92
2023/08/16 02:59:18;;;;;;;12.18;8.38;;;12.80;99.90;;;;;;5036159;28;20029;-90
2023/08/16 03:01:43;;;;;;;7.35;5.25;;;13.00;99.90;;;;;;5017676;28;20127;-89
2023/08/16 03:04:10;;;;;;;10.57;7.00;;;13.10;99.90;;;;;;5004271;28;20033;-89
2023/08/16 03:06:35;;;;;;;16.85;9.52;;;13.20;99.90;;;;;;5050257;28;20041;-88
2023/08/16 03:09:01;;;;;;;11.98;8.45;;;13.40;99.90;;;;;;5037736;28;20047;-93
2023/08/16 03:11:27;;;;;;;12.20;8.60;;;13.50;99.90;;;;;;5038684;28;20091;-92
2023/08/16 03:13:53;;;;;;;9.55;5.90;;;13.60;99.90;;;;;;5045209;28;20082;-87
2023/08/16 03:16:19;;;;;;;7.38;5.10;;;13.70;99.90;;;;;;5025763;28;20083;-87
2023/08/16 03:18:44;;;;;;;8.70;5.13;;;13.70;99.90;;;;;;5028411;28;20033;-89
2023/08/16 03:21:10;;;;;;;6.53;4.70;;;13.70;99.90;;;;;;5033558;28;20735;-88
2023/08/16 03:23:36;;;;;;;6.55;5.10;;;13.80;99.90;;;;;;5051806;28;20400;-89
2023/08/16 03:26:02;;;;;;;9.02;5.93;;;13.80;99.90;;;;;;5034644;28;20492;-88
2023/08/16 03:28:28;;;;;;;8.10;5.80;;;13.70;99.90;;;;;;5035688;28;20420;-87
2023/08/16 03:30:54;;;;;;;7.90;5.38;;;13.80;99.90;;;;;;5034668;28;20037;-89
2023/08/16 03:33:20;;;;;;;8.27;5.53;;;13.70;99.90;;;;;;5056424;28;20040;-88
2023/08/16 03:35:45;;;;;;;9.63;6.15;;;13.60;99.90;;;;;;5019333;28;20041;-92
2023/08/16 03:38:11;;;;;;;9.07;5.70;;;13.60;99.90;;;;;;5038183;28;20033;-89
2023/08/16 03:40:37;;;;;;;7.88;5.53;;;13.60;99.90;;;;;;5052774;28;20060;-91
2023/08/16 03:43:03;;;;;;;10.68;6.82;;;13.50;99.90;;;;;;5037393;28;20044;-91
2023/08/16 03:45:29;;;;;;;8.68;6.07;;;13.50;99.90;;;;;;5046471;28;20349;-89
2023/08/16 03:47:56;;;;;;;6.72;6.03;;;13.60;99.90;;;;;;5033929;28;20037;-88
2023/08/16 03:50:22;;;;;;;10.35;6.00;;;13.60;99.90;;;;;;5035315;28;20535;-89
2023/08/16 03:52:48;;;;;;;12.70;9.15;;;13.60;99.90;;;;;;5032254;28;20071;-87
2023/08/16 03:55:14;;;;;;;7.50;5.05;;;13.70;99.90;;;;;;5034011;28;20037;-89
2023/08/16 03:57:40;;;;;;;12.55;7.57;;;13.70;99.90;;;;;;5036915;28;20395;-91
2023/08/16 04:00:11;;;;;;;7.38;5.90;;;13.80;99.90;;;;;;5054556;28;20045;-88
2023/08/16 04:02:38;;;;;;;7.10;3.97;;;13.90;99.90;;;;;;5023014;28;20064;-88
2023/08/16 04:05:11;;;;;;;9.23;4.70;;;13.90;99.90;;;;;;5035513;28;20044;-88
2023/08/16 04:07:38;;;;;;;5.30;4.18;;;13.90;99.90;;;;;;5057900;28;20036;-88
2023/08/16 04:10:04;;;;;;;8.18;5.40;;;13.90;99.90;;;;;;5036080;28;20037;-88
2023/08/16 04:12:30;;;;;;;8.65;5.05;;;13.90;99.90;;;;;;5015471;28;20037;-88
2023/08/16 04:14:56;;;;;;;7.65;5.47;;;13.90;99.90;;;;;;5031910;28;20037;-88
2023/08/16 04:17:22;;;;;;;7.38;5.25;;;13.90;99.90;;;;;;5037317;28;20272;-88
2023/08/16 04:19:48;;;;;;;6.38;4.75;;;13.90;99.90;;;;;;5038574;28;20123;-88
2023/08/16 04:22:13;;;;;;;7.50;4.90;;;13.90;99.90;;;;;;5036809;28;20032;-88
2023/08/16 04:24:39;;;;;;;8.73;4.60;;;13.90;99.90;;;;;;5040307;28;20400;-88
2023/08/16 04:27:05;;;;;;;6.63;4.85;;;13.80;99.90;;;;;;5030212;28;20041;-89
2023/08/16 04:29:31;;;;;;;6.68;4.22;;;13.80;99.90;;;;;;5053259;28;20443;-91
2023/08/16 04:31:57;;;;;;;8.93;4.80;;;13.80;99.90;;;;;;5045564;28;20045;-90
2023/08/16 04:34:23;;;;;;;6.10;4.72;;;13.70;99.90;;;;;;5051833;28;20060;-90
2023/08/16 04:36:49;;;;;;;7.78;5.05;;;13.70;99.90;;;;;;5042921;28;20036;-89
2023/08/16 04:39:14;;;;;;;10.63;5.85;;;13.60;99.90;;;;;;5036189;28;20436;-89
2023/08/16 04:41:40;;;;;;;6.68;5.10;;;13.50;99.90;;;;;;5036024;28;20048;-89
2023/08/16 04:44:07;;;;;;;7.20;5.28;;;13.50;99.90;;;;;;5035546;28;20049;-88
2023/08/16 04:46:33;;;;;;;11.30;5.78;;;13.50;99.90;;;;;;5066608;28;20484;-89
2023/08/16 04:48:59;;;;;;;9.80;5.95;;;13.50;99.90;;;;;;5039138;28;20041;-89
2023/08/16 04:51:24;;;;;;;7.03;6.32;;;13.50;99.90;;;;;;5041474;28;20079;-88
2023/08/16 04:53:50;;;;;;;7.07;6.25;;;13.50;99.90;;;;;;5056339;28;20443;-87
2023/08/16 04:56:16;;;;;;;8.77;5.88;;;13.50;99.90;;;;;;5056274;28;20074;-87
2023/08/16 04:58:42;;;;;;;7.57;6.10;;;13.50;99.90;;;;;;5038086;28;20484;-88
2023/08/16 05:01:09;;;;;;;7.22;5.97;;;13.60;99.90;;;;;;5045873;28;20131;-88
2023/08/16 05:03:35;;;;;;;7.70;5.85;;;13.60;99.90;;;;;;5047953;28;20045;-88
2023/08/16 05:06:02;;;;;;;9.30;5.75;;;13.60;99.90;;;;;;5042436;28;20047;-87
2023/08/16 05:08:29;;;;;;;5.80;5.00;;;13.60;99.90;;;;;;5043941;28;20058;-87
2023/08/16 05:10:56;;;;;;;6.18;4.05;;;13.60;99.90;;;;;;5050150;28;20044;-88
2023/08/16 05:13:21;;;;;;;5.78;5.18;;;13.60;99.90;;;;;;5055990;28;20040;-88
2023/08/16 05:15:47;;;;;;;5.82;4.90;;;13.50;99.90;;;;;;5036290;28;20094;-89
2023/08/16 05:18:13;;;;;;;6.68;5.18;;;13.50;99.90;;;;;;5023598;28;20033;-92
2023/08/16 05:20:39;;;;;;;9.77;6.22;;;13.50;99.90;;;;;;5039902;28;20083;-91
2023/08/16 05:23:05;;;;;;;7.43;5.22;;;13.50;99.90;;;;;;5038775;28;20032;-89
2023/08/16 05:25:30;;;;;;;8.52;5.70;;;13.50;99.90;;;;;;5057284;28;20045;-89
2023/08/16 05:27:58;;;;;;;8.57;5.22;;;13.60;99.90;;;;;;5034772;28;20135;-87
2023/08/16 05:30:28;;;;;;;7.60;5.80;;;13.70;99.90;;;;;;5047247;28;20047;-88
2023/08/16 05:32:57;;;;;;;6.57;5.65;;;13.80;99.90;;;;;;5055098;28;20129;-89
2023/08/16 05:35:24;;;;;;;8.60;6.45;;;13.90;99.90;;;;;;5038786;28;20041;-92
2023/08/16 05:37:54;;;;;;;10.48;7.20;;;14.00;99.90;;;;;;5036636;28;20511;-92
2023/08/16 05:40:20;;;;;;;10.60;8.00;;;14.10;99.90;;;;;;5038422;28;20068;-91
2023/08/16 05:42:46;;;;;;;10.02;7.93;;;14.20;99.90;;;;;;5037192;28;20500;-86
2023/08/16 05:45:11;;;;;;;10.25;8.38;;;14.40;99.90;;;;;;5052517;28;20098;-91
2023/08/16 05:47:37;;;;;;;13.52;8.63;;;14.60;99.90;;;;;;5056465;28;20101;-91
2023/08/16 05:50:03;;;;;;;15.45;9.88;;;14.80;99.90;;;;;;5030045;28;20041;-91
2023/08/16 05:52:29;;;;;;;13.35;9.02;;;14.90;99.90;;;;;;5038728;28;20069;-92
2023/08/16 05:54:55;;;;;;;15.63;8.80;;;15.00;99.90;;;;;;5054463;28;20032;-91
2023/08/16 05:57:20;;;;;;;12.20;8.90;;;15.10;99.90;;;;;;5025767;28;20079;-90
2023/08/16 05:59:46;;;;;;;12.18;8.65;;;15.20;99.90;;;;;;5036538;28;20045;-91
2023/08/16 06:02:12;;;;;;;12.55;9.30;;;15.20;99.90;;;;;;5049985;28;20128;-92
2023/08/16 06:04:38;;;;;;;15.98;9.55;;;15.30;99.90;;;;;;5052816;28;20187;-92
2023/08/16 06:07:04;;;;;;;15.75;9.23;;;15.40;99.90;;;;;;5071564;28;20037;-90
2023/08/16 06:09:31;;;;;;;14.23;9.57;;;15.50;99.90;;;;;;5046894;28;20048;-88
2023/08/16 06:11:57;;;;;;;11.15;9.07;;;15.50;99.90;;;;;;5034026;28;20037;-87
2023/08/16 06:14:23;;;;;;;14.07;8.75;;;15.60;99.90;;;;;;5033927;28;20124;-88
2023/08/16 06:16:48;;;;;;;13.05;9.82;;;15.70;99.90;;;;;;5034235;28;20430;-86
2023/08/16 06:19:15;;;;;;;13.90;10.30;;;15.80;99.90;;;;;;5033286;28;20446;-87
2023/08/16 06:21:41;;;;;;;13.07;9.98;;;15.90;99.90;;;;;;5034252;28;20044;-88
2023/08/16 06:24:11;;;;;;;14.45;10.02;;;16.00;99.90;;;;;;5034833;28;20120;-87
2023/08/16 06:26:37;;;;;;;13.77;9.52;;;16.10;99.90;;;;;;5014910;28;20052;-87
2023/08/16 06:29:03;;;;;;;11.32;8.55;;;16.20;99.90;;;;;;5018069;28;20037;-87
2023/08/16 06:31:28;;;;;;;11.25;9.55;;;16.20;99.90;;;;;;5050792;28;20068;-86
2023/08/16 06:33:54;;;;;;;14.60;9.60;;;16.40;99.90;;;;;;5050720;28;20041;-86
2023/08/16 06:36:20;;;;;;;13.60;9.38;;;16.40;99.90;;;;;;5034887;28;20044;-86
2023/08/16 06:38:45;;;;;;;14.23;9.40;;;16.50;99.90;;;;;;5020544;28;20119;-87
2023/08/16 06:41:12;;;;;;;11.77;9.10;;;16.50;99.90;;;;;;5038211;28;20068;-87
2023/08/16 06:43:39;;;;;;;15.15;9.65;;;16.50;99.90;;;;;;5034203;28;20040;-87
2023/08/16 06:46:04;;;;;;;10.60;8.70;;;16.50;99.90;;;;;;5051210;28;20098;-87
2023/08/16 06:48:31;;;;;;;10.93;9.23;;;16.60;99.90;;;;;;5050887;28;20037;-88
2023/08/16 06:50:56;;;;;;;13.82;9.80;;;16.60;99.90;;;;;;5050427;28;20429;-87
2023/08/16 06:53:23;;;;;;;12.63;9.60;;;16.60;99.90;;;;;;5017779;28;20182;-87
2023/08/16 06:55:48;;;;;;;14.63;9.65;;;16.70;99.90;;;;;;5050764;28;20052;-87
2023/08/16 06:58:14;;;;;;;14.70;9.52;;;16.70;99.90;;;;;;5050645;28;20489;-87
2023/08/16 07:00:44;;;;;;;14.68;9.85;;;16.70;99.90;;;;;;5039839;28;20568;-89
2023/08/16 07:03:10;;;;;;;10.70;9.60;;;16.80;99.90;;;;;;5031043;28;20052;-88
2023/08/16 07:05:35;;;;;;;12.18;9.38;;;16.80;99.90;;;;;;5034902;28;20088;-87
2023/08/16 07:08:01;;;;;;;11.02;8.70;;;16.80;99.90;;;;;;5033836;28;20519;-87
2023/08/16 07:10:27;;;;;;;13.35;9.43;;;16.80;99.90;;;;;;5018252;28;20099;-87
2023/08/16 07:12:53;;;;;;;10.77;8.70;;;16.90;99.90;;;;;;5035082;28;20523;-87
2023/08/16 07:15:18;;;;;;;12.43;8.85;;;16.90;99.90;;;;;;5034570;28;20472;-87
2023/08/16 07:17:44;;;;;;;14.00;9.68;;;17.00;99.90;;;;;;5045305;28;20033;-87
2023/08/16 07:20:10;;;;;;;12.68;9.35;;;17.00;99.90;;;;;;5062326;28;20403;-87
2023/08/16 07:22:39;;;;;;;12.40;8.95;;;17.10;99.90;;;;;;5033658;28;20084;-88
2023/08/16 07:25:06;;;;;;;11.32;8.68;;;17.10;99.90;;;;;;5034201;28;20124;-89
2023/08/16 07:27:32;;;;;;;11.95;8.77;;;17.20;99.90;;;;;;5016874;28;20499;-87
2023/08/16 07:29:58;;;;;;;12.68;9.55;;;17.20;99.90;;;;;;5033706;28;20041;-87
2023/08/16 07:32:24;;;;;;;12.45;10.65;;;17.20;99.90;;;;;;5053546;28;20044;-86
2023/08/16 07:34:50;;;;;;;13.88;10.88;;;17.30;99.90;;;;;;5037615;28;20044;-88
2023/08/16 07:37:17;;;;;;;12.00;9.70;;;17.20;99.90;;;;;;5054184;28;20045;-88
2023/08/16 07:39:43;;;;;;;13.27;9.73;;;17.20;99.90;;;;;;5054866;28;20044;-87
2023/08/16 07:42:09;;;;;;;14.30;10.68;;;17.30;99.90;;;;;;5037592;28;20041;-89
2023/08/16 07:44:36;;;;;;;12.45;9.90;;;17.40;99.90;;;;;;5055966;28;20381;-87
2023/08/16 07:47:02;;;;;;;13.57;9.02;;;17.40;99.90;;;;;;5040172;28;20041;-90
2023/08/16 07:49:29;;;;;;;13.60;10.10;;;17.50;99.90;;;;;;5066469;28;20049;-89
2023/08/16 07:51:58;;;;;;;12.50;8.40;;;17.50;99.90;;;;;;5037051;28;20029;-87
2023/08/16 07:54:24;;;;;;;10.13;8.20;;;17.50;99.90;;;;;;5037110;28;20041;-88
2023/08/16 07:56:51;;;;;;;12.27;7.97;;;17.50;99.90;;;;;;5038886;28;20128;-86
2023/08/16 07:59:17;;;;;;;10.13;7.68;;;17.70;99.90;;;;;;5039732;28;20393;-86
2023/08/16 08:01:43;;;;;;;10.57;7.10;;;17.80;99.90;;;;;;5053342;28;20180;-86
2023/08/16 08:04:09;;;;;;;10.73;8.30;;;17.90;99.90;;;;;;5037157;28;20045;-91
2023/08/16 08:06:36;;;;;;;11.52;7.15;;;18.10;99.90;;;;;;5035812;28;20080;-88
2023/08/16 08:09:03;;;;;;;11.40;5.75;;;18.30;99.90;;;;;;5061570;28;20056;-87
2023/08/16 08:11:28;;;;;;;7.50;5.32;;;18.50;99.90;;;;;;5060894;28;20047;-89
2023/08/16 08:13:54;;;;;;;7.97;5.68;;;18.60;99.90;;;;;;5065334;28;20037;-85
2023/08/16 08:16:20;;;;;;;8.00;5.10;;;18.70;99.90;;;;;;5038347;28;20580;-87
2023/08/16 08:18:46;;;;;;;6.65;5.72;;;18.80;99.90;;;;;;5036881;28;20098;-86
2023/08/16 08:21:12;;;;;;;8.00;5.50;;;19.00;99.90;;;;;;5053467;28;20124;-88
2023/08/16 08:23:37;;;;;;;8.30;5.28;;;19.10;99.90;;;;;;5062514;28;20040;-92
2023/08/16 08:26:03;;;;;;;8.45;5.45;;;19.30;99.90;;;;;;5040662;28;20047;-87
2023/08/16 08:28:29;;;;;;;4.90;4.32;;;19.50;99.90;;;;;;5061414;28;20147;-87
2023/08/16 08:30:55;;;;;;;6.20;4.15;;;19.60;99.90;;;;;;5072816;28;20082;-87
2023/08/16 08:33:21;;;;;;;6.45;4.22;;;19.70;99.90;;;;;;5040037;28;20070;-87
2023/08/16 08:35:48;;;;;;;7.20;4.55;;;19.80;99.90;;;;;;5038139;28;20389;-86
2023/08/16 08:38:14;;;;;;;7.82;5.70;;;19.70;99.90;;;;;;5036272;28;20128;-86
2023/08/16 08:40:40;;;;;;;12.45;6.90;;;19.80;99.90;;;;;;5036769;28;20524;-89
2023/08/16 08:43:08;;;;;;;11.65;7.80;;;19.80;99.90;;;;;;5052067;28;20076;-88
2023/08/16 08:45:35;;;;;;;7.40;5.18;;;19.80;99.90;;;;;;5061388;28;20047;-85
2023/08/16 08:48:01;;;;;;;9.43;6.22;;;19.90;99.90;;;;;;5038164;28;20040;-88
2023/08/16 08:50:30;;;;;;;8.00;5.30;;;19.90;99.90;;;;;;5049671;28;20051;-87
2023/08/16 08:52:56;;;;;;;6.32;4.68;;;20.10;99.90;;;;;;5047857;28;20387;-87
2023/08/16 08:55:25;;;;;;;5.75;4.55;;;20.20;99.90;;;;;;5050918;28;20037;-90
2023/08/16 08:57:57;;;;;;;7.03;4.57;;;20.40;99.90;;;;;;5049238;28;20080;-88
2023/08/16 09:00:27;;;;;;;5.75;5.05;;;20.50;99.90;;;;;;5055841;28;20123;-85
2023/08/16 09:02:55;;;;;;;7.65;4.43;;;20.40;99.90;;;;;;5057048;28;20130;-87
2023/08/16 09:05:25;;;;;;;6.68;4.03;;;20.20;99.90;;;;;;5055839;28;20105;-87
2023/08/16 09:07:51;;;;;;;5.03;4.35;;;20.20;99.90;;;;;;5029282;28;20048;-86
2023/08/16 09:10:18;;;;;;;5.70;4.13;;;20.10;99.90;;;;;;5046270;28;20048;-88
2023/08/16 09:12:44;;;;;;;6.82;4.50;;;20.10;99.90;;;;;;5057392;28;20036;-87
2023/08/16 09:15:10;;;;;;;5.15;3.88;;;20.10;99.90;;;;;;5037385;28;20040;-88
2023/08/16 09:17:36;;;;;;;5.40;3.25;;;20.00;99.90;;;;;;5019817;28;20408;-89
2023/08/16 09:20:05;;;;;;;6.63;2.92;;;20.00;99.90;;;;;;5019273;28;20377;-86
2023/08/16 09:22:31;;;;;;;4.35;2.97;;;20.00;99.90;;;;;;5019903;28;20052;-93
2023/08/16 09:24:58;;;;;;;4.03;2.53;;;19.90;99.90;;;;;;5053936;28;20049;-87
2023/08/16 09:27:28;;;;;;;4.65;2.50;;;19.90;99.90;;;;;;5033421;28;20107;-90
2023/08/16 09:29:57;;;;;;;3.63;2.50;;;19.90;99.90;;;;;;5033850;28;20048;-84
2023/08/16 09:32:27;;;;;;;5.20;3.60;;;20.00;99.90;;;;;;5059634;28;20036;-86
2023/08/16 09:34:53;;;;;;;6.25;3.30;;;20.20;99.90;;;;;;5060018;28;20037;-91
2023/08/16 09:37:20;;;;;;;3.67;3.00;;;20.40;99.90;;;;;;5034270;28;20460;-87
2023/08/16 09:39:56;;;;;;;3.78;3.30;;;20.60;99.90;;;;;;5017150;28;20041;-84
2023/08/16 09:42:33;;;;;;;4.20;3.10;;;20.70;99.90;;;;;;5017454;28;20125;-92
2023/08/16 09:44:59;;;;;;;6.03;4.13;;;20.80;99.90;;;;;;5039032;28;20040;-85
2023/08/16 09:47:28;;;;;;;5.53;4.95;;;20.80;99.90;;;;;;5034766;28;20049;-86
2023/08/16 09:49:54;;;;;;;5.93;3.45;;;20.90;99.90;;;;;;5051409;28;20049;-83
2023/08/16 09:52:20;;;;;;;3.90;3.15;;;20.90;99.90;;;;;;5051664;28;20028;-88
2023/08/16 09:54:54;;;;;;;6.30;3.50;;;21.10;99.90;;;;;;5050338;28;20047;-88
2023/08/16 09:57:20;;;;;;;3.47;2.80;;;21.30;99.90;;;;;;5054677;28;20044;-86
2023/08/16 09:59:47;;;;;;;5.65;3.40;;;21.30;99.90;;;;;;5047649;28;20058;-88
2023/08/16 10:02:13;;;;;;;4.95;2.78;;;21.20;99.90;;;;;;5050122;28;20131;-88
2023/08/16 10:04:40;;;;;;;5.03;2.80;;;21.20;99.90;;;;;;5061958;28;20163;-84
2023/08/16 10:07:06;;;;;;;2.92;2.63;;;21.20;99.90;;;;;;5051446;28;20044;-89
2023/08/16 10:09:33;;;;;;;3.50;2.83;;;21.20;99.90;;;;;;5042278;28;20091;-89
2023/08/16 10:12:04;;;;;;;4.28;2.80;;;21.20;99.90;;;;;;5036312;28;20033;-88
2023/08/16 10:14:31;;;;;;;3.70;2.80;;;21.20;99.90;;;;;;5018395;28;20090;-86
2023/08/16 10:17:00;;;;;;;5.15;2.58;;;21.30;99.90;;;;;;5053246;28;20055;-89
2023/08/16 10:19:32;;;;;;;3.55;2.53;;;21.40;99.90;;;;;;5035008;28;20044;-91
2023/08/16 10:21:59;;;;;;;3.80;2.33;;;21.50;99.90;;;;;;5027020;28;20042;-88
2023/08/16 10:24:29;;;;;;;4.18;2.30;;;21.80;99.90;;;;;;5032931;28;20367;-90
2023/08/16 10:26:59;;;;;;;2.78;2.58;;;21.90;99.90;;;;;;5045533;28;20041;-89
2023/08/16 10:29:30;;;;;;;6.03;3.15;;;22.00;99.90;;;;;;5034815;28;20036;-89
2023/08/16 10:31:56;;;;;;;2.83;2.45;;;22.10;99.90;;;;;;5038371;28;20045;-88
2023/08/16 10:34:22;;;;;;;3.10;2.80;;;22.00;99.90;;;;;;5036284;28;20523;-88
2023/08/16 10:36:49;;;;;;;3.45;3.15;;;22.00;99.90;;;;;;5017511;28;20033;-85
2023/08/16 10:39:24;;;;;;;3.17;2.72;;;22.10;99.90;;;;;;5033435;28;20033;-88
2023/08/16 10:41:51;;;;;;;4.97;3.10;;;22.20;99.90;;;;;;5034383;28;20045;-88
2023/08/16 10:44:24;;;;;;;5.50;3.70;;;22.40;99.90;;;;;;5023362;28;20048;-89
2023/08/16 10:46:50;;;;;;;6.15;3.25;;;22.20;99.90;;;;;;5042929;28;20048;-89
2023/08/16 10:49:18;;;;;;;5.10;3.30;;;22.10;99.90;;;;;;5025856;28;20059;-91
2023/08/16 10:51:45;;;;;;;6.15;3.10;;;22.10;99.90;;;;;;5018140;28;20037;-89
2023/08/16 10:54:11;;;;;;;3.38;3.05;;;22.00;99.90;;;;;;5031742;28;20040;-87
2023/08/16 10:56:46;;;;;;;4.38;3.17;;;22.00;99.90;;;;;;5046882;28;20082;-87
2023/08/16 10:59:12;;;;;;;5.20;3.20;;;22.10;99.90;;;;;;5051053;28;20128;-88
2023/08/16 11:01:49;;;;;;;2.58;2.33;;;22.20;99.90;;;;;;5038071;28;20140;-85
2023/08/16 11:04:15;;;;;;;3.72;1.85;;;22.30;99.90;;;;;;5059883;28;20128;-89
2023/08/16 11:06:41;;;;;;;2.38;1.95;;;22.40;99.90;;;;;;5052858;28;20178;-90
2023/08/16 11:09:07;;;;;;;2.08;1.70;;;22.50;99.90;;;;;;5063990;28;20037;-87
2023/08/16 11:11:34;;;;;;;2.67;1.50;;;22.60;99.90;;;;;;5056258;28;20044;-89
2023/08/16 11:14:00;;;;;;;3.42;1.40;;;22.80;99.90;;;;;;5024372;28;20075;-89
2023/08/16 11:16:27;;;;;;;3.20;1.65;;;22.80;99.90;;;;;;5073905;28;20047;-89
2023/08/16 11:18:53;;;;;;;4.05;1.42;;;23.00;99.90;;;;;;5044613;28;20040;-92
2023/08/16 11:21:19;;;;;;;2.35;1.45;;;23.10;99.90;;;;;;5037594;28;20465;-89
2023/08/16 11:23:45;;;;;;;2.13;1.60;;;23.30;99.90;;;;;;5054530;28;20086;-88
2023/08/16 11:26:12;;;;;;;2.85;1.60;;;23.50;99.90;;;;;;5030266;28;20123;-88
2023/08/16 11:28:39;;;;;;;2.85;1.17;;;23.60;99.90;;;;;;5047597;28;20097;-88
2023/08/16 11:31:06;;;;;;;2.15;1.10;;;23.50;99.90;;;;;;5058546;28;20047;-89
2023/08/16 11:33:38;;;;;;;2.40;1.27;;;23.40;99.90;;;;;;5041512;28;20517;-91
2023/08/16 11:36:07;;;;;;;2.97;1.30;;;23.20;99.90;;;;;;5062010;28;20064;-89
2023/08/16 11:38:34;;;;;;;2.72;1.42;;;23.10;99.90;;;;;;5045946;28;20044;-87
2023/08/16 11:41:01;;;;;;;3.10;1.98;;;23.20;99.90;;;;;;5047407;28;20049;-90
2023/08/16 11:43:31;;;;;;;2.78;1.85;;;23.10;99.90;;;;;;5037163;28;20049;-85
2023/08/16 11:45:59;;;;;;;4.80;1.53;;;23.00;99.90;;;;;;5046278;28;20037;-89
2023/08/16 11:48:25;;;;;;;3.35;1.40;;;22.90;99.90;;;;;;5041216;28;20037;-90
2023/08/16 11:50:55;;;;;;;2.55;1.25;;;22.50;99.90;;;;;;5046974;28;20407;-87
2023/08/16 11:53:22;;;;;;;2.53;1.77;;;22.50;99.90;;;;;;5039115;28;20039;-87
2023/08/16 11:56:00;;;;;;;3.65;1.60;;;22.70;99.90;;;;;;5012625;28;20028;-88
2023/08/16 11:58:29;;;;;;;2.50;1.50;;;22.80;99.90;;;;;;5061808;28;20028;-90
2023/08/16 12:01:09;;;;;;;3.20;1.50;;;22.90;99.90;;;;;;5043709;28;20697;-84
2023/08/16 12:03:35;;;;;;;2.95;1.60;;;22.80;99.90;;;;;;5023867;28;21887;-87
2023/08/16 12:06:11;;;;;;;3.15;1.73;;;22.70;99.90;;;;;;5040184;28;20049;-87
2023/08/16 12:08:50;;;;;;;2.60;1.60;;;22.60;99.90;;;;;;5045506;28;20040;-89
2023/08/16 12:11:31;;;;;;;2.63;1.73;;;22.80;99.90;;;;;;5029677;28;20131;-84
2023/08/16 12:13:57;;;;;;;2.37;1.50;;;22.80;99.90;;;;;;5054422;28;20396;-86
2023/08/16 12:16:22;;;;;;;3.38;1.73;;;22.60;99.90;;;;;;5050202;28;20366;-89
2023/08/16 12:18:49;;;;;;;3.33;1.75;;;22.40;99.90;;;;;;5041941;28;20496;-88
2023/08/16 12:21:15;;;;;;;7.05;2.53;;;22.50;99.90;;;;;;5043276;28;20075;-88
2023/08/16 12:23:41;;;;;;;3.58;1.75;;;22.60;99.90;;;;;;5037665;28;20457;-87
2023/08/16 12:26:07;;;;;;;1.98;1.35;;;22.70;99.90;;;;;;5022355;28;20385;-87
2023/08/16 12:28:33;;;;;;;3.22;1.42;;;23.00;99.90;;;;;;5048139;28;20124;-87
2023/08/16 12:30:59;;;;;;;1.90;1.60;;;23.30;99.90;;;;;;5035896;28;20526;-84
2023/08/16 12:33:24;;;;;;;2.47;1.58;;;23.30;99.90;;;;;;5055855;28;20384;-91
2023/08/16 12:35:50;;;;;;;2.28;1.70;;;23.20;99.90;;;;;;5015414;28;20040;-88
2023/08/16 12:38:18;;;;;;;4.10;1.80;;;22.90;99.90;;;;;;5022211;28;20494;-91
2023/08/16 12:40:45;;;;;;;2.30;1.75;;;22.50;99.90;;;;;;5066547;28;20044;-89